SETU/TUA METAR and TAF weather

Enter ICAO airport designator
Station Type Date Time Source
SETU METAR 2020/12/04 21:00 UTC NOAA

SETU 042100Z 12003KT 9999 SCT020 SCT100 15/12 Q1029


Station Type Date Time Source
SETU Decoded METAR 2020/12/04 21:00 UTC NOAA

Tulcan / El Rosal, Ecuador (SETU) 00-49N 077-42W
Dec 04, 2020 - 04:00 PM EST / 2020.12.04 2100 UTC
Wind: from the ESE (120 degrees) at 3 MPH (3 KT):0
Visibility: greater than 7 mile(s):0
Sky conditions: partly cloudy
Temperature: 59 F (15 C)
Dew Point: 53 F (12 C)
Relative Humidity: 82%
Pressure (altimeter): 30.39 in. Hg (1029 hPa)
ob: SETU 042100Z 12003KT 9999 SCT020 SCT100 15/12 Q1029
cycle: 21

Station Type Date Time Source
SETU TAF UTC NOAA

Error!

Example: see airport list